Flight Briefing for CMB859

Departure Arrival
Ambouli International Airport (HDAM)
Click to view FAA NOTAMS
Bahrain International Airport (OBBI)
Click to view FAA NOTAMS
Departure Time Arrival Time
N/A N/A
Aircraft Distance
B757-200SF 977nm
Departure METAR Arrival METAR
HDAM 252200Z 15003KT CAVOK 27/23 Q1010 OBBI 252330Z 05010KT 8000 NSC 23/19 Q1008 NOSIG
Suggested Route
TORBA2E TORBA B535 KRA UM651 NADKI M318 DEGPA UT100 KUTNA UL564 BAT UL564 DOH VEDED P699 SOGAT


View recent IFR Routes data
Notes
USTRANSCOM CONTRACT FLIGHT

Charts and Procedures

Charts for HDAM
No chart available
Charts for OBBI
No chart available

Windy.com Weather Map